sensor_id;sensor_type;location;lat;lon;timestamp;pressure;altitude;pressure_sealevel;temperature;humidity
66547;BME280;53400;50.364;14.874;2022-07-22T00:00:06;98946.75;;;19.66;81.52
66547;BME280;53400;50.364;14.874;2022-07-22T00:02:53;98946.47;;;20.28;78.37
66547;BME280;53400;50.364;14.874;2022-07-22T00:05:19;98952.75;;;20.42;76.23
66547;BME280;53400;50.364;14.874;2022-07-22T00:07:44;98954.03;;;20.31;75.90
66547;BME280;53400;50.364;14.874;2022-07-22T00:10:12;98958.66;;;20.16;76.28
66547;BME280;53400;50.364;14.874;2022-07-22T00:12:39;98957.31;;;20.00;76.40
66547;BME280;53400;50.364;14.874;2022-07-22T00:15:06;98960.72;;;19.92;78.90
66547;BME280;53400;50.364;14.874;2022-07-22T00:17:32;98958.56;;;19.75;80.18
66547;BME280;53400;50.364;14.874;2022-07-22T00:19:58;98972.97;;;19.89;79.64
66547;BME280;53400;50.364;14.874;2022-07-22T00:22:24;98957.47;;;19.90;80.22
66547;BME280;53400;50.364;14.874;2022-07-22T00:24:49;98958.63;;;20.03;79.19
66547;BME280;53400;50.364;14.874;2022-07-22T00:27:17;98959.13;;;20.05;79.20
66547;BME280;53400;50.364;14.874;2022-07-22T00:29:42;98963.69;;;20.09;79.06
66547;BME280;53400;50.364;14.874;2022-07-22T00:32:08;98963.56;;;20.14;78.76
66547;BME280;53400;50.364;14.874;2022-07-22T00:34:34;98965.91;;;20.35;77.76
66547;BME280;53400;50.364;14.874;2022-07-22T00:37:00;98965.13;;;20.34;77.68
66547;BME280;53400;50.364;14.874;2022-07-22T00:39:26;98967.22;;;20.24;76.97
66547;BME280;53400;50.364;14.874;2022-07-22T00:41:52;98969.00;;;20.14;77.58
66547;BME280;53400;50.364;14.874;2022-07-22T00:44:19;98963.69;;;20.09;78.07
66547;BME280;53400;50.364;14.874;2022-07-22T00:46:45;98956.31;;;20.10;77.78
66547;BME280;53400;50.364;14.874;2022-07-22T00:49:11;98963.69;;;19.77;78.89
66547;BME280;53400;50.364;14.874;2022-07-22T00:51:37;98957.81;;;20.02;77.67
66547;BME280;53400;50.364;14.874;2022-07-22T00:54:05;98958.13;;;20.01;77.27
66547;BME280;53400;50.364;14.874;2022-07-22T00:56:31;98960.91;;;19.82;76.77
66547;BME280;53400;50.364;14.874;2022-07-22T00:58:59;98961.22;;;19.94;77.47
66547;BME280;53400;50.364;14.874;2022-07-22T01:01:26;98954.88;;;19.85;76.97
66547;BME280;53400;50.364;14.874;2022-07-22T01:03:53;98952.75;;;19.63;77.47
66547;BME280;53400;50.364;14.874;2022-07-22T01:06:18;98950.78;;;19.49;79.64
66547;BME280;53400;50.364;14.874;2022-07-22T01:08:44;98956.72;;;19.70;76.87
66547;BME280;53400;50.364;14.874;2022-07-22T01:11:12;98951.09;;;19.48;79.25
66547;BME280;53400;50.364;14.874;2022-07-22T01:13:39;98946.44;;;19.48;75.60
66547;BME280;53400;50.364;14.874;2022-07-22T01:16:06;98952.09;;;18.95;82.47
66547;BME280;53400;50.364;14.874;2022-07-22T01:18:34;98958.63;;;18.94;84.06
66547;BME280;53400;50.364;14.874;2022-07-22T01:21:02;98949.78;;;19.27;82.16
66547;BME280;53400;50.364;14.874;2022-07-22T01:23:28;98942.06;;;19.34;81.75
66547;BME280;53400;50.364;14.874;2022-07-22T01:25:54;98946.00;;;19.41;81.12
66547;BME280;53400;50.364;14.874;2022-07-22T01:28:20;98949.53;;;19.23;81.77
66547;BME280;53400;50.364;14.874;2022-07-22T01:30:46;98953.06;;;19.23;81.75
66547;BME280;53400;50.364;14.874;2022-07-22T01:33:12;98952.03;;;19.00;83.00
66547;BME280;53400;50.364;14.874;2022-07-22T01:35:38;98944.56;;;19.30;81.35
66547;BME280;53400;50.364;14.874;2022-07-22T01:38:06;98943.53;;;19.45;80.82
66547;BME280;53400;50.364;14.874;2022-07-22T01:40:32;98946.44;;;19.48;80.66
66547;BME280;53400;50.364;14.874;2022-07-22T01:42:57;98945.78;;;19.38;78.12
66547;BME280;53400;50.364;14.874;2022-07-22T01:45:23;98938.09;;;19.07;81.92
66547;BME280;53400;50.364;14.874;2022-07-22T01:47:49;98942.13;;;18.91;83.78
66547;BME280;53400;50.364;14.874;2022-07-22T01:50:15;98944.84;;;19.10;81.29
66547;BME280;53400;50.364;14.874;2022-07-22T01:52:41;98945.44;;;19.25;82.80
66547;BME280;53400;50.364;14.874;2022-07-22T01:55:09;98942.78;;;19.01;83.04
66547;BME280;53400;50.364;14.874;2022-07-22T01:57:35;98947.63;;;19.42;82.54
66547;BME280;53400;50.364;14.874;2022-07-22T02:00:03;98949.66;;;18.75;86.08
66547;BME280;53400;50.364;14.874;2022-07-22T02:02:29;98946.75;;;18.66;86.95
66547;BME280;53400;50.364;14.874;2022-07-22T02:04:55;98950.09;;;18.82;86.00
66547;BME280;53400;50.364;14.874;2022-07-22T02:07:20;98956.09;;;18.55;88.31
66547;BME280;53400;50.364;14.874;2022-07-22T02:09:46;98949.06;;;18.54;88.25
66547;BME280;53400;50.364;14.874;2022-07-22T02:12:14;98942.94;;;18.67;87.29
66547;BME280;53400;50.364;14.874;2022-07-22T02:14:39;98943.34;;;18.55;87.68
66547;BME280;53400;50.364;14.874;2022-07-22T02:17:05;98948.44;;;18.38;88.98
66547;BME280;53400;50.364;14.874;2022-07-22T02:19:31;98951.81;;;18.25;90.32
66547;BME280;53400;50.364;14.874;2022-07-22T02:21:57;98950.31;;;18.38;89.37
66547;BME280;53400;50.364;14.874;2022-07-22T02:24:23;98958.84;;;18.50;88.89
66547;BME280;53400;50.364;14.874;2022-07-22T02:26:49;98957.59;;;18.66;88.20
66547;BME280;53400;50.364;14.874;2022-07-22T02:29:16;98958.03;;;18.78;87.54
66547;BME280;53400;50.364;14.874;2022-07-22T02:31:42;98957.50;;;18.95;87.08
66547;BME280;53400;50.364;14.874;2022-07-22T02:34:08;98957.59;;;18.90;87.03
66547;BME280;53400;50.364;14.874;2022-07-22T02:36:34;98954.06;;;18.90;86.84
66547;BME280;53400;50.364;14.874;2022-07-22T02:38:59;98958.59;;;18.75;87.83
66547;BME280;53400;50.364;14.874;2022-07-22T02:41:25;98959.69;;;18.74;88.34
66547;BME280;53400;50.364;14.874;2022-07-22T02:43:51;98960.22;;;18.76;88.89
66547;BME280;53400;50.364;14.874;2022-07-22T02:46:21;98960.59;;;18.65;89.53
66547;BME280;53400;50.364;14.874;2022-07-22T02:48:47;98960.50;;;18.51;90.57
66547;BME280;53400;50.364;14.874;2022-07-22T02:51:12;98962.63;;;18.54;89.91
66547;BME280;53400;50.364;14.874;2022-07-22T02:53:38;98960.72;;;18.78;88.98
66547;BME280;53400;50.364;14.874;2022-07-22T02:56:04;98970.78;;;18.78;88.79
66547;BME280;53400;50.364;14.874;2022-07-22T02:58:30;98962.78;;;18.63;89.21
66547;BME280;53400;50.364;14.874;2022-07-22T03:00:56;98960.31;;;18.66;89.21
66547;BME280;53400;50.364;14.874;2022-07-22T03:03:23;98954.81;;;18.71;89.15
66547;BME280;53400;50.364;14.874;2022-07-22T03:05:49;98962.94;;;18.71;89.19
66547;BME280;53400;50.364;14.874;2022-07-22T03:08:15;98960.72;;;18.78;88.38
66547;BME280;53400;50.364;14.874;2022-07-22T03:10:41;98957.34;;;18.87;88.32
66547;BME280;53400;50.364;14.874;2022-07-22T03:13:07;98958.69;;;18.89;88.21
66547;BME280;53400;50.364;14.874;2022-07-22T03:15:33;98960.66;;;18.60;89.93
66547;BME280;53400;50.364;14.874;2022-07-22T03:17:59;98966.22;;;18.73;88.48
66547;BME280;53400;50.364;14.874;2022-07-22T03:20:26;98961.22;;;18.80;87.94
66547;BME280;53400;50.364;14.874;2022-07-22T03:22:52;98963.66;;;18.82;86.85
66547;BME280;53400;50.364;14.874;2022-07-22T03:25:21;98963.13;;;18.80;87.36
66547;BME280;53400;50.364;14.874;2022-07-22T03:27:47;98967.41;;;18.86;86.76
66547;BME280;53400;50.364;14.874;2022-07-22T03:30:13;98962.56;;;18.83;86.16
66547;BME280;53400;50.364;14.874;2022-07-22T03:32:39;98954.31;;;18.69;85.22
66547;BME280;53400;50.364;14.874;2022-07-22T03:35:10;98952.84;;;18.53;86.57
66547;BME280;53400;50.364;14.874;2022-07-22T03:37:37;98959.56;;;18.61;86.62
66547;BME280;53400;50.364;14.874;2022-07-22T03:40:04;98958.41;;;18.67;85.56
66547;BME280;53400;50.364;14.874;2022-07-22T03:42:30;98961.91;;;18.67;85.57
66547;BME280;53400;50.364;14.874;2022-07-22T03:44:56;98962.72;;;18.68;85.13
66547;BME280;53400;50.364;14.874;2022-07-22T03:47:22;98965.44;;;18.68;86.30
66547;BME280;53400;50.364;14.874;2022-07-22T03:49:48;98962.94;;;18.71;87.09
66547;BME280;53400;50.364;14.874;2022-07-22T03:52:14;98959.03;;;18.34;90.18
66547;BME280;53400;50.364;14.874;2022-07-22T03:54:41;98962.09;;;18.52;89.70
66547;BME280;53400;50.364;14.874;2022-07-22T03:57:07;98961.13;;;18.91;87.40
66547;BME280;53400;50.364;14.874;2022-07-22T03:59:33;98954.59;;;18.92;87.56
66547;BME280;53400;50.364;14.874;2022-07-22T04:01:59;98956.38;;;19.20;86.19
66547;BME280;53400;50.364;14.874;2022-07-22T04:04:25;98947.56;;;19.29;84.97
66547;BME280;53400;50.364;14.874;2022-07-22T04:06:51;98949.97;;;19.68;80.38
66547;BME280;53400;50.364;14.874;2022-07-22T04:09:17;98949.44;;;19.85;81.13
66547;BME280;53400;50.364;14.874;2022-07-22T04:11:45;98945.25;;;20.20;79.35
66547;BME280;53400;50.364;14.874;2022-07-22T04:14:12;98947.47;;;20.32;78.70
66547;BME280;53400;50.364;14.874;2022-07-22T04:16:38;98948.72;;;20.53;77.88
66547;BME280;53400;50.364;14.874;2022-07-22T04:19:04;98943.06;;;20.50;76.99
66547;BME280;53400;50.364;14.874;2022-07-22T04:21:30;98959.50;;;20.86;75.25
66547;BME280;53400;50.364;14.874;2022-07-22T04:23:57;98948.19;;;21.06;74.68
66547;BME280;53400;50.364;14.874;2022-07-22T04:26:23;98952.09;;;21.50;71.69
66547;BME280;53400;50.364;14.874;2022-07-22T04:28:50;98943.13;;;21.72;70.97
66547;BME280;53400;50.364;14.874;2022-07-22T04:31:16;98945.31;;;21.62;70.98
66547;BME280;53400;50.364;14.874;2022-07-22T04:33:42;98937.44;;;22.14;69.42
66547;BME280;53400;50.364;14.874;2022-07-22T04:36:08;98931.25;;;22.22;69.25
66547;BME280;53400;50.364;14.874;2022-07-22T04:38:34;98936.75;;;22.39;68.46
66547;BME280;53400;50.364;14.874;2022-07-22T04:41:00;98943.75;;;22.63;67.67
66547;BME280;53400;50.364;14.874;2022-07-22T04:43:26;98948.47;;;22.88;66.73
66547;BME280;53400;50.364;14.874;2022-07-22T04:45:53;98943.41;;;23.39;65.84
66547;BME280;53400;50.364;14.874;2022-07-22T04:48:20;98942.28;;;23.49;65.34
66547;BME280;53400;50.364;14.874;2022-07-22T04:50:46;98945.03;;;23.75;64.42
66547;BME280;53400;50.364;14.874;2022-07-22T04:53:12;98955.09;;;24.00;63.38
66547;BME280;53400;50.364;14.874;2022-07-22T04:55:38;98954.38;;;24.30;61.89
66547;BME280;53400;50.364;14.874;2022-07-22T04:58:04;98950.53;;;24.69;60.52
66547;BME280;53400;50.364;14.874;2022-07-22T05:00:30;98957.50;;;24.87;59.22
66547;BME280;53400;50.364;14.874;2022-07-22T05:02:57;98951.25;;;24.87;60.57
66547;BME280;53400;50.364;14.874;2022-07-22T05:05:24;98950.31;;;24.74;59.32
66547;BME280;53400;50.364;14.874;2022-07-22T05:07:49;98951.63;;;24.98;58.85
66547;BME280;53400;50.364;14.874;2022-07-22T05:10:15;98960.03;;;25.22;59.33
66547;BME280;53400;50.364;14.874;2022-07-22T05:12:42;98969.06;;;25.44;58.21
66547;BME280;53400;50.364;14.874;2022-07-22T05:15:08;98955.13;;;25.70;58.61
66547;BME280;53400;50.364;14.874;2022-07-22T05:17:34;98953.84;;;25.88;57.12
66547;BME280;53400;50.364;14.874;2022-07-22T05:20:03;98946.84;;;26.12;55.88
66547;BME280;53400;50.364;14.874;2022-07-22T05:22:29;98956.00;;;26.28;55.51
66547;BME280;53400;50.364;14.874;2022-07-22T05:24:55;98946.84;;;26.24;55.26
66547;BME280;53400;50.364;14.874;2022-07-22T05:27:20;98946.56;;;26.62;55.23
66547;BME280;53400;50.364;14.874;2022-07-22T05:29:46;98957.44;;;26.59;55.61
66547;BME280;53400;50.364;14.874;2022-07-22T05:32:12;98954.69;;;26.59;55.96
66547;BME280;53400;50.364;14.874;2022-07-22T05:34:38;98955.78;;;27.19;53.66
66547;BME280;53400;50.364;14.874;2022-07-22T05:37:05;98953.63;;;27.53;53.45
66547;BME280;53400;50.364;14.874;2022-07-22T05:39:31;98958.09;;;27.57;53.33
66547;BME280;53400;50.364;14.874;2022-07-22T05:41:57;98962.03;;;27.44;52.67
66547;BME280;53400;50.364;14.874;2022-07-22T05:44:23;98959.97;;;27.69;51.55
66547;BME280;53400;50.364;14.874;2022-07-22T05:46:49;98961.22;;;27.72;51.49
66547;BME280;53400;50.364;14.874;2022-07-22T05:49:15;98966.09;;;27.90;51.64
66547;BME280;53400;50.364;14.874;2022-07-22T05:51:41;98959.63;;;27.99;51.74
66547;BME280;53400;50.364;14.874;2022-07-22T05:54:08;98952.63;;;28.17;51.31
66547;BME280;53400;50.364;14.874;2022-07-22T05:56:34;98953.19;;;28.39;51.49
66547;BME280;53400;50.364;14.874;2022-07-22T05:59:00;98950.59;;;28.77;48.75
66547;BME280;53400;50.364;14.874;2022-07-22T06:01:26;98951.84;;;28.17;50.95
66547;BME280;53400;50.364;14.874;2022-07-22T06:03:52;98953.31;;;28.58;51.06
66547;BME280;53400;50.364;14.874;2022-07-22T06:06:18;98958.75;;;28.90;49.05
66547;BME280;53400;50.364;14.874;2022-07-22T06:08:44;98951.47;;;28.81;49.18
66547;BME280;53400;50.364;14.874;2022-07-22T06:11:12;98958.41;;;28.91;48.49
66547;BME280;53400;50.364;14.874;2022-07-22T06:13:38;98948.78;;;29.01;49.69
66547;BME280;53400;50.364;14.874;2022-07-22T06:16:04;98949.34;;;29.45;47.96
66547;BME280;53400;50.364;14.874;2022-07-22T06:18:31;98955.09;;;29.56;47.88
66547;BME280;53400;50.364;14.874;2022-07-22T06:20:57;98955.38;;;29.90;46.75
66547;BME280;53400;50.364;14.874;2022-07-22T06:23:23;98947.78;;;30.06;46.27
66547;BME280;53400;50.364;14.874;2022-07-22T06:25:49;98956.16;;;30.10;47.36
66547;BME280;53400;50.364;14.874;2022-07-22T06:28:16;98952.41;;;29.60;46.29
66547;BME280;53400;50.364;14.874;2022-07-22T06:30:42;98954.19;;;30.10;45.93
66547;BME280;53400;50.364;14.874;2022-07-22T06:33:08;98961.09;;;30.20;46.22
66547;BME280;53400;50.364;14.874;2022-07-22T06:35:34;98955.63;;;29.81;46.08
66547;BME280;53400;50.364;14.874;2022-07-22T06:38:00;98959.47;;;30.19;47.56
66547;BME280;53400;50.364;14.874;2022-07-22T06:40:26;98953.28;;;30.49;45.71
66547;BME280;53400;50.364;14.874;2022-07-22T06:42:52;98956.81;;;30.03;45.69
66547;BME280;53400;50.364;14.874;2022-07-22T06:45:19;98956.88;;;30.07;45.50
66547;BME280;53400;50.364;14.874;2022-07-22T06:47:45;98945.56;;;30.35;45.52
66547;BME280;53400;50.364;14.874;2022-07-22T06:50:11;98953.38;;;30.79;44.80
66547;BME280;53400;50.364;14.874;2022-07-22T06:52:38;98959.28;;;30.08;45.85
66547;BME280;53400;50.364;14.874;2022-07-22T06:55:06;98959.34;;;30.58;43.98
66547;BME280;53400;50.364;14.874;2022-07-22T06:57:32;98947.50;;;30.57;44.28
66547;BME280;53400;50.364;14.874;2022-07-22T06:59:57;98955.03;;;30.83;44.21
66547;BME280;53400;50.364;14.874;2022-07-22T07:02:25;98947.91;;;31.09;43.24
66547;BME280;53400;50.364;14.874;2022-07-22T07:04:51;98954.97;;;31.06;42.88
66547;BME280;53400;50.364;14.874;2022-07-22T07:07:16;98939.03;;;30.96;43.40
66547;BME280;53400;50.364;14.874;2022-07-22T07:09:42;98945.09;;;31.05;43.40
66547;BME280;53400;50.364;14.874;2022-07-22T07:12:08;98948.38;;;30.88;43.71
66547;BME280;53400;50.364;14.874;2022-07-22T07:14:34;98939.03;;;30.73;44.00
66547;BME280;53400;50.364;14.874;2022-07-22T07:17:00;98949.13;;;30.85;44.63
66547;BME280;53400;50.364;14.874;2022-07-22T07:19:27;98943.50;;;31.04;44.66
66547;BME280;53400;50.364;14.874;2022-07-22T07:21:53;98940.88;;;31.15;44.33
66547;BME280;53400;50.364;14.874;2022-07-22T07:24:19;98942.22;;;30.98;44.42
66547;BME280;53400;50.364;14.874;2022-07-22T07:26:45;98941.09;;;31.33;43.63
66547;BME280;53400;50.364;14.874;2022-07-22T07:29:11;98942.63;;;31.30;43.22
66547;BME280;53400;50.364;14.874;2022-07-22T07:31:37;98947.19;;;31.16;43.06
66547;BME280;53400;50.364;14.874;2022-07-22T07:34:02;98938.69;;;30.25;44.73
66547;BME280;53400;50.364;14.874;2022-07-22T07:36:30;98938.81;;;30.82;43.92
66547;BME280;53400;50.364;14.874;2022-07-22T07:38:56;98935.66;;;31.10;42.96
66547;BME280;53400;50.364;14.874;2022-07-22T07:41:22;98946.09;;;30.44;43.65
66547;BME280;53400;50.364;14.874;2022-07-22T07:43:47;98940.28;;;30.76;43.54
66547;BME280;53400;50.364;14.874;2022-07-22T07:46:13;98935.13;;;31.01;42.40
66547;BME280;53400;50.364;14.874;2022-07-22T07:48:39;98942.50;;;30.67;43.55
66547;BME280;53400;50.364;14.874;2022-07-22T07:51:06;98943.19;;;30.14;44.71
66547;BME280;53400;50.364;14.874;2022-07-22T07:53:33;98944.28;;;30.29;43.81
66547;BME280;53400;50.364;14.874;2022-07-22T07:55:59;98936.38;;;30.54;43.34
66547;BME280;53400;50.364;14.874;2022-07-22T07:58:25;98934.06;;;30.82;42.75
66547;BME280;53400;50.364;14.874;2022-07-22T08:00:51;98931.88;;;31.25;40.80
66547;BME280;53400;50.364;14.874;2022-07-22T08:03:17;98935.25;;;31.72;40.25
66547;BME280;53400;50.364;14.874;2022-07-22T08:05:42;98929.69;;;31.68;39.69
66547;BME280;53400;50.364;14.874;2022-07-22T08:08:08;98933.97;;;31.96;38.29
66547;BME280;53400;50.364;14.874;2022-07-22T08:10:36;98930.97;;;30.34;39.61
66547;BME280;53400;50.364;14.874;2022-07-22T08:13:02;98929.34;;;30.33;40.44
66547;BME280;53400;50.364;14.874;2022-07-22T08:15:29;98928.44;;;30.52;41.03
66547;BME280;53400;50.364;14.874;2022-07-22T08:17:55;98928.06;;;31.03;38.85
66547;BME280;53400;50.364;14.874;2022-07-22T08:20:22;98932.44;;;30.78;40.39
66547;BME280;53400;50.364;14.874;2022-07-22T08:22:48;98933.53;;;31.00;39.09
66547;BME280;53400;50.364;14.874;2022-07-22T08:25:14;98927.25;;;31.03;38.00
66547;BME280;53400;50.364;14.874;2022-07-22T08:27:41;98929.09;;;31.22;37.00
66547;BME280;53400;50.364;14.874;2022-07-22T08:30:07;98927.47;;;31.47;36.96
66547;BME280;53400;50.364;14.874;2022-07-22T08:32:34;98928.00;;;31.00;36.15
66547;BME280;53400;50.364;14.874;2022-07-22T08:35:00;98928.38;;;30.72;36.79
66547;BME280;53400;50.364;14.874;2022-07-22T08:37:27;98923.13;;;30.90;36.89
66547;BME280;53400;50.364;14.874;2022-07-22T08:39:52;98925.78;;;30.82;37.79
66547;BME280;53400;50.364;14.874;2022-07-22T08:42:19;98930.41;;;31.01;34.64
66547;BME280;53400;50.364;14.874;2022-07-22T08:44:47;98927.13;;;30.92;36.43
66547;BME280;53400;50.364;14.874;2022-07-22T08:47:13;98928.66;;;30.90;36.92
66547;BME280;53400;50.364;14.874;2022-07-22T08:49:39;98929.53;;;30.71;36.25
66547;BME280;53400;50.364;14.874;2022-07-22T08:52:05;98930.97;;;30.15;36.02
66547;BME280;53400;50.364;14.874;2022-07-22T08:54:31;98929.88;;;30.20;36.30
66547;BME280;53400;50.364;14.874;2022-07-22T08:56:57;98928.06;;;30.50;35.09
66547;BME280;53400;50.364;14.874;2022-07-22T08:59:24;98921.59;;;30.43;35.07
66547;BME280;53400;50.364;14.874;2022-07-22T09:02:05;98919.94;;;30.64;34.80
66547;BME280;53400;50.364;14.874;2022-07-22T09:04:32;98924.06;;;30.48;35.33
66547;BME280;53400;50.364;14.874;2022-07-22T09:07:15;98912.81;;;30.37;36.39
66547;BME280;53400;50.364;14.874;2022-07-22T09:09:48;98928.50;;;30.79;35.64
66547;BME280;53400;50.364;14.874;2022-07-22T09:12:14;98917.34;;;30.49;36.37
66547;BME280;53400;50.364;14.874;2022-07-22T09:14:43;98913.94;;;30.82;35.55
66547;BME280;53400;50.364;14.874;2022-07-22T09:17:27;98906.38;;;30.79;33.76
66547;BME280;53400;50.364;14.874;2022-07-22T09:19:55;98911.81;;;30.49;34.50
66547;BME280;53400;50.364;14.874;2022-07-22T09:22:32;98916.75;;;30.36;34.10
66547;BME280;53400;50.364;14.874;2022-07-22T09:24:59;98905.81;;;29.74;35.54
66547;BME280;53400;50.364;14.874;2022-07-22T09:27:26;98905.59;;;30.29;35.13
66547;BME280;53400;50.364;14.874;2022-07-22T09:29:52;98906.16;;;30.18;34.30
66547;BME280;53400;50.364;14.874;2022-07-22T09:32:19;98901.00;;;29.71;34.89
66547;BME280;53400;50.364;14.874;2022-07-22T09:34:46;98902.50;;;29.88;35.28
66547;BME280;53400;50.364;14.874;2022-07-22T09:37:12;98902.44;;;29.45;35.74
66547;BME280;53400;50.364;14.874;2022-07-22T09:39:39;98898.06;;;30.26;34.60
66547;BME280;53400;50.364;14.874;2022-07-22T09:42:07;98898.53;;;30.31;34.77
66547;BME280;53400;50.364;14.874;2022-07-22T09:44:33;98909.25;;;30.36;34.63
66547;BME280;53400;50.364;14.874;2022-07-22T09:46:59;98902.75;;;30.48;33.99
66547;BME280;53400;50.364;14.874;2022-07-22T09:49:32;98892.56;;;30.29;33.52
66547;BME280;53400;50.364;14.874;2022-07-22T09:52:01;98898.34;;;30.44;33.77
66547;BME280;53400;50.364;14.874;2022-07-22T09:54:28;98900.56;;;30.61;33.28
66547;BME280;53400;50.364;14.874;2022-07-22T09:56:54;98895.13;;;30.95;33.54
66547;BME280;53400;50.364;14.874;2022-07-22T09:59:20;98894.13;;;31.06;33.14
66547;BME280;53400;50.364;14.874;2022-07-22T10:01:47;98902.63;;;30.68;33.86
66547;BME280;53400;50.364;14.874;2022-07-22T10:04:17;98890.13;;;31.04;32.24
66547;BME280;53400;50.364;14.874;2022-07-22T10:06:46;98892.69;;;30.86;31.83
66547;BME280;53400;50.364;14.874;2022-07-22T10:09:14;98891.97;;;30.93;32.25
66547;BME280;53400;50.364;14.874;2022-07-22T10:11:42;98892.88;;;31.04;33.01
66547;BME280;53400;50.364;14.874;2022-07-22T10:14:11;98891.75;;;31.05;31.87
66547;BME280;53400;50.364;14.874;2022-07-22T10:16:37;98879.63;;;30.60;32.28
66547;BME280;53400;50.364;14.874;2022-07-22T10:19:03;98887.13;;;30.59;33.15
66547;BME280;53400;50.364;14.874;2022-07-22T10:21:31;98889.00;;;30.78;31.98
66547;BME280;53400;50.364;14.874;2022-07-22T10:24:09;98891.50;;;31.17;31.35
66547;BME280;53400;50.364;14.874;2022-07-22T10:26:51;98885.78;;;31.03;31.89
66547;BME280;53400;50.364;14.874;2022-07-22T10:29:24;98875.38;;;31.23;32.23
66547;BME280;53400;50.364;14.874;2022-07-22T10:32:21;98883.06;;;31.37;32.76
66547;BME280;53400;50.364;14.874;2022-07-22T10:35:24;98880.47;;;31.51;32.03
66547;BME280;53400;50.364;14.874;2022-07-22T10:37:59;98878.81;;;31.46;32.30
66547;BME280;53400;50.364;14.874;2022-07-22T10:40:27;98883.56;;;31.46;32.50
66547;BME280;53400;50.364;14.874;2022-07-22T10:43:06;98877.81;;;31.99;31.97
66547;BME280;53400;50.364;14.874;2022-07-22T10:45:35;98868.28;;;31.96;31.53
66547;BME280;53400;50.364;14.874;2022-07-22T10:48:03;98871.75;;;31.52;31.35
66547;BME280;53400;50.364;14.874;2022-07-22T10:50:46;98866.91;;;31.42;32.15
66547;BME280;53400;50.364;14.874;2022-07-22T10:53:15;98871.47;;;31.61;31.76
66547;BME280;53400;50.364;14.874;2022-07-22T10:56:06;98862.63;;;31.48;31.85
66547;BME280;53400;50.364;14.874;2022-07-22T10:58:42;98863.78;;;31.85;31.34
66547;BME280;53400;50.364;14.874;2022-07-22T11:01:09;98864.28;;;31.90;32.07
66547;BME280;53400;50.364;14.874;2022-07-22T11:03:37;98857.31;;;31.70;32.11
66547;BME280;53400;50.364;14.874;2022-07-22T11:06:15;98860.53;;;31.75;32.34
66547;BME280;53400;50.364;14.874;2022-07-22T11:08:43;98859.31;;;31.73;31.79
66547;BME280;53400;50.364;14.874;2022-07-22T11:11:12;98861.25;;;31.69;31.40
66547;BME280;53400;50.364;14.874;2022-07-22T11:13:41;98861.50;;;31.90;31.40
66547;BME280;53400;50.364;14.874;2022-07-22T11:16:18;98861.94;;;31.96;31.03
66547;BME280;53400;50.364;14.874;2022-07-22T11:18:47;98843.09;;;31.34;31.50
66547;BME280;53400;50.364;14.874;2022-07-22T11:21:15;98848.88;;;31.93;30.97
66547;BME280;53400;50.364;14.874;2022-07-22T11:23:41;98842.78;;;32.28;31.24
66547;BME280;53400;50.364;14.874;2022-07-22T11:26:09;98842.94;;;31.94;31.45
66547;BME280;53400;50.364;14.874;2022-07-22T11:28:40;98836.31;;;32.10;30.76
66547;BME280;53400;50.364;14.874;2022-07-22T11:31:07;98831.94;;;32.05;32.60
66547;BME280;53400;50.364;14.874;2022-07-22T11:33:33;98831.00;;;32.38;31.58
66547;BME280;53400;50.364;14.874;2022-07-22T11:36:03;98833.88;;;32.53;30.44
66547;BME280;53400;50.364;14.874;2022-07-22T11:38:40;98824.91;;;32.77;30.96
66547;BME280;53400;50.364;14.874;2022-07-22T11:41:06;98830.38;;;32.63;30.78
66547;BME280;53400;50.364;14.874;2022-07-22T11:43:37;98831.47;;;33.21;29.32
66547;BME280;53400;50.364;14.874;2022-07-22T11:46:05;98822.72;;;33.15;31.10
66547;BME280;53400;50.364;14.874;2022-07-22T11:48:31;98817.31;;;32.67;29.98
66547;BME280;53400;50.364;14.874;2022-07-22T11:50:59;98818.03;;;31.98;30.89
66547;BME280;53400;50.364;14.874;2022-07-22T11:53:26;98819.34;;;32.11;30.81
66547;BME280;53400;50.364;14.874;2022-07-22T11:55:56;98820.06;;;32.05;31.40
66547;BME280;53400;50.364;14.874;2022-07-22T11:58:33;98814.75;;;32.40;31.59
66547;BME280;53400;50.364;14.874;2022-07-22T12:00:59;98808.22;;;32.63;28.77
66547;BME280;53400;50.364;14.874;2022-07-22T12:03:27;98809.69;;;32.46;30.51
66547;BME280;53400;50.364;14.874;2022-07-22T12:05:53;98812.53;;;32.60;30.84
66547;BME280;53400;50.364;14.874;2022-07-22T12:08:19;98808.16;;;32.56;30.08
66547;BME280;53400;50.364;14.874;2022-07-22T12:10:46;98802.09;;;32.36;30.75
66547;BME280;53400;50.364;14.874;2022-07-22T12:13:12;98801.88;;;32.66;30.42
66547;BME280;53400;50.364;14.874;2022-07-22T12:15:39;98805.81;;;32.65;30.40
66547;BME280;53400;50.364;14.874;2022-07-22T12:18:14;98802.00;;;32.95;29.47
66547;BME280;53400;50.364;14.874;2022-07-22T12:20:44;98798.88;;;33.00;29.11
66547;BME280;53400;50.364;14.874;2022-07-22T12:23:10;98797.91;;;32.67;30.24
66547;BME280;53400;50.364;14.874;2022-07-22T12:25:50;98793.47;;;32.48;30.24
66547;BME280;53400;50.364;14.874;2022-07-22T12:28:16;98791.22;;;32.75;30.15
66547;BME280;53400;50.364;14.874;2022-07-22T12:30:42;98791.75;;;33.02;30.47
66547;BME280;53400;50.364;14.874;2022-07-22T12:33:12;98787.41;;;33.08;29.91
66547;BME280;53400;50.364;14.874;2022-07-22T12:35:39;98777.63;;;32.45;30.54
66547;BME280;53400;50.364;14.874;2022-07-22T12:38:07;98780.41;;;32.49;29.73
66547;BME280;53400;50.364;14.874;2022-07-22T12:40:34;98784.94;;;32.19;29.99
66547;BME280;53400;50.364;14.874;2022-07-22T12:43:04;98783.19;;;32.56;28.89
66547;BME280;53400;50.364;14.874;2022-07-22T12:45:31;98783.53;;;32.47;29.01
66547;BME280;53400;50.364;14.874;2022-07-22T12:48:05;98779.69;;;32.66;28.62
66547;BME280;53400;50.364;14.874;2022-07-22T12:50:33;98776.66;;;32.96;28.34